sensor_id;sensor_type;location;lat;lon;timestamp;P1;durP1;ratioP1;P2;durP2;ratioP2
1428;SDS011;708;51.442;7.016;2022-10-16T00:01:47;4.78;;;3.00;;
1428;SDS011;708;51.442;7.016;2022-10-16T00:04:16;8.02;;;4.13;;
1428;SDS011;708;51.442;7.016;2022-10-16T00:06:42;6.78;;;3.40;;
1428;SDS011;708;51.442;7.016;2022-10-16T00:09:09;2.95;;;2.40;;
1428;SDS011;708;51.442;7.016;2022-10-16T00:11:37;6.53;;;3.33;;
1428;SDS011;708;51.442;7.016;2022-10-16T00:14:06;3.00;;;2.45;;
1428;SDS011;708;51.442;7.016;2022-10-16T00:16:35;4.70;;;2.45;;
1428;SDS011;708;51.442;7.016;2022-10-16T00:19:02;3.47;;;2.60;;
1428;SDS011;708;51.442;7.016;2022-10-16T00:21:31;3.78;;;2.80;;
1428;SDS011;708;51.442;7.016;2022-10-16T00:23:58;4.63;;;3.00;;
1428;SDS011;708;51.442;7.016;2022-10-16T00:26:27;3.95;;;2.72;;
1428;SDS011;708;51.442;7.016;2022-10-16T00:28:55;3.13;;;2.55;;
1428;SDS011;708;51.442;7.016;2022-10-16T00:31:22;6.05;;;2.80;;
1428;SDS011;708;51.442;7.016;2022-10-16T00:33:49;4.05;;;2.38;;
1428;SDS011;708;51.442;7.016;2022-10-16T00:36:17;3.90;;;2.65;;
1428;SDS011;708;51.442;7.016;2022-10-16T00:38:49;3.65;;;2.40;;
1428;SDS011;708;51.442;7.016;2022-10-16T00:41:17;2.17;;;1.98;;
1428;SDS011;708;51.442;7.016;2022-10-16T00:43:45;2.70;;;2.17;;
1428;SDS011;708;51.442;7.016;2022-10-16T00:46:14;3.60;;;2.30;;
1428;SDS011;708;51.442;7.016;2022-10-16T00:48:45;4.75;;;2.33;;
1428;SDS011;708;51.442;7.016;2022-10-16T00:51:14;3.72;;;2.15;;
1428;SDS011;708;51.442;7.016;2022-10-16T00:53:43;2.78;;;2.00;;
1428;SDS011;708;51.442;7.016;2022-10-16T00:56:12;3.30;;;2.50;;
1428;SDS011;708;51.442;7.016;2022-10-16T00:58:39;4.45;;;2.22;;
1428;SDS011;708;51.442;7.016;2022-10-16T01:01:05;3.08;;;2.40;;
1428;SDS011;708;51.442;7.016;2022-10-16T01:03:33;2.60;;;2.20;;
1428;SDS011;708;51.442;7.016;2022-10-16T01:06:06;2.65;;;2.15;;
1428;SDS011;708;51.442;7.016;2022-10-16T01:08:44;4.75;;;1.90;;
1428;SDS011;708;51.442;7.016;2022-10-16T01:11:21;3.25;;;1.92;;
1428;SDS011;708;51.442;7.016;2022-10-16T01:13:53;4.32;;;2.30;;
1428;SDS011;708;51.442;7.016;2022-10-16T01:16:26;2.38;;;1.92;;
1428;SDS011;708;51.442;7.016;2022-10-16T01:19:00;5.45;;;2.63;;
1428;SDS011;708;51.442;7.016;2022-10-16T01:21:36;2.25;;;2.05;;
1428;SDS011;708;51.442;7.016;2022-10-16T01:24:06;3.65;;;1.85;;
1428;SDS011;708;51.442;7.016;2022-10-16T01:26:47;2.40;;;2.03;;
1428;SDS011;708;51.442;7.016;2022-10-16T01:29:28;7.45;;;2.15;;
1428;SDS011;708;51.442;7.016;2022-10-16T01:32:00;2.80;;;1.90;;
1428;SDS011;708;51.442;7.016;2022-10-16T01:34:35;2.70;;;2.10;;
1428;SDS011;708;51.442;7.016;2022-10-16T01:37:09;2.85;;;2.15;;
1428;SDS011;708;51.442;7.016;2022-10-16T01:39:40;3.92;;;2.20;;
1428;SDS011;708;51.442;7.016;2022-10-16T01:42:12;3.03;;;1.90;;
1428;SDS011;708;51.442;7.016;2022-10-16T01:44:42;4.22;;;2.58;;
1428;SDS011;708;51.442;7.016;2022-10-16T01:47:12;8.10;;;2.95;;
1428;SDS011;708;51.442;7.016;2022-10-16T01:49:40;1.70;;;1.55;;
1428;SDS011;708;51.442;7.016;2022-10-16T01:52:09;3.67;;;2.35;;
1428;SDS011;708;51.442;7.016;2022-10-16T01:54:40;2.25;;;2.05;;
1428;SDS011;708;51.442;7.016;2022-10-16T01:57:09;2.60;;;1.88;;
1428;SDS011;708;51.442;7.016;2022-10-16T01:59:40;3.03;;;2.08;;
1428;SDS011;708;51.442;7.016;2022-10-16T02:02:10;2.97;;;2.10;;
1428;SDS011;708;51.442;7.016;2022-10-16T02:04:39;2.45;;;1.83;;
1428;SDS011;708;51.442;7.016;2022-10-16T02:07:10;2.92;;;2.30;;
1428;SDS011;708;51.442;7.016;2022-10-16T02:09:37;3.08;;;2.15;;
1428;SDS011;708;51.442;7.016;2022-10-16T02:12:07;3.40;;;2.20;;
1428;SDS011;708;51.442;7.016;2022-10-16T02:14:38;2.85;;;2.50;;
1428;SDS011;708;51.442;7.016;2022-10-16T02:17:10;7.82;;;2.58;;
1428;SDS011;708;51.442;7.016;2022-10-16T02:19:38;3.45;;;2.25;;
1428;SDS011;708;51.442;7.016;2022-10-16T02:22:06;2.60;;;2.40;;
1428;SDS011;708;51.442;7.016;2022-10-16T02:24:43;4.15;;;2.10;;
1428;SDS011;708;51.442;7.016;2022-10-16T02:27:15;2.78;;;2.40;;
1428;SDS011;708;51.442;7.016;2022-10-16T02:29:52;4.72;;;2.20;;
1428;SDS011;708;51.442;7.016;2022-10-16T02:32:24;2.65;;;2.05;;
1428;SDS011;708;51.442;7.016;2022-10-16T02:34:56;5.80;;;2.53;;
1428;SDS011;708;51.442;7.016;2022-10-16T02:37:25;2.50;;;2.30;;
1428;SDS011;708;51.442;7.016;2022-10-16T02:39:53;2.60;;;2.22;;
1428;SDS011;708;51.442;7.016;2022-10-16T02:42:20;2.70;;;2.17;;
1428;SDS011;708;51.442;7.016;2022-10-16T02:44:55;2.17;;;1.98;;
1428;SDS011;708;51.442;7.016;2022-10-16T02:47:22;2.40;;;1.75;;
1428;SDS011;708;51.442;7.016;2022-10-16T02:49:49;3.75;;;2.42;;
1428;SDS011;708;51.442;7.016;2022-10-16T02:52:15;2.85;;;2.30;;
1428;SDS011;708;51.442;7.016;2022-10-16T02:54:42;2.78;;;2.10;;
1428;SDS011;708;51.442;7.016;2022-10-16T02:57:09;3.55;;;2.25;;
1428;SDS011;708;51.442;7.016;2022-10-16T02:59:36;2.40;;;1.80;;
1428;SDS011;708;51.442;7.016;2022-10-16T03:02:04;2.25;;;1.75;;
1428;SDS011;708;51.442;7.016;2022-10-16T03:04:31;2.30;;;2.10;;
1428;SDS011;708;51.442;7.016;2022-10-16T03:06:58;3.97;;;2.15;;
1428;SDS011;708;51.442;7.016;2022-10-16T03:09:25;5.35;;;2.00;;
1428;SDS011;708;51.442;7.016;2022-10-16T03:11:51;2.67;;;2.08;;
1428;SDS011;708;51.442;7.016;2022-10-16T03:14:18;2.38;;;1.88;;
1428;SDS011;708;51.442;7.016;2022-10-16T03:16:45;2.40;;;1.92;;
1428;SDS011;708;51.442;7.016;2022-10-16T03:19:13;2.42;;;2.00;;
1428;SDS011;708;51.442;7.016;2022-10-16T03:21:42;2.28;;;1.90;;
1428;SDS011;708;51.442;7.016;2022-10-16T03:24:08;2.75;;;1.85;;
1428;SDS011;708;51.442;7.016;2022-10-16T03:26:35;4.93;;;2.47;;
1428;SDS011;708;51.442;7.016;2022-10-16T03:29:02;2.20;;;2.00;;
1428;SDS011;708;51.442;7.016;2022-10-16T03:31:30;2.33;;;2.00;;
1428;SDS011;708;51.442;7.016;2022-10-16T03:33:57;2.92;;;1.90;;
1428;SDS011;708;51.442;7.016;2022-10-16T03:36:25;3.03;;;2.15;;
1428;SDS011;708;51.442;7.016;2022-10-16T03:38:51;2.70;;;2.10;;
1428;SDS011;708;51.442;7.016;2022-10-16T03:41:18;4.45;;;1.85;;
1428;SDS011;708;51.442;7.016;2022-10-16T03:43:45;4.82;;;1.80;;
1428;SDS011;708;51.442;7.016;2022-10-16T03:46:12;3.22;;;2.20;;
1428;SDS011;708;51.442;7.016;2022-10-16T03:48:39;2.55;;;1.50;;
1428;SDS011;708;51.442;7.016;2022-10-16T03:51:05;2.90;;;1.90;;
1428;SDS011;708;51.442;7.016;2022-10-16T03:53:33;1.90;;;1.80;;
1428;SDS011;708;51.442;7.016;2022-10-16T03:56:00;2.42;;;1.73;;
1428;SDS011;708;51.442;7.016;2022-10-16T03:58:27;3.45;;;1.80;;
1428;SDS011;708;51.442;7.016;2022-10-16T04:00:54;3.25;;;1.92;;
1428;SDS011;708;51.442;7.016;2022-10-16T04:03:20;2.40;;;2.15;;
1428;SDS011;708;51.442;7.016;2022-10-16T04:05:48;3.35;;;2.20;;
1428;SDS011;708;51.442;7.016;2022-10-16T04:08:14;3.00;;;1.90;;
1428;SDS011;708;51.442;7.016;2022-10-16T04:10:43;4.10;;;2.15;;
1428;SDS011;708;51.442;7.016;2022-10-16T04:13:10;3.17;;;1.90;;
1428;SDS011;708;51.442;7.016;2022-10-16T04:15:38;3.13;;;2.30;;
1428;SDS011;708;51.442;7.016;2022-10-16T04:18:05;3.78;;;2.00;;
1428;SDS011;708;51.442;7.016;2022-10-16T04:20:32;2.00;;;1.75;;
1428;SDS011;708;51.442;7.016;2022-10-16T04:22:59;2.33;;;1.95;;
1428;SDS011;708;51.442;7.016;2022-10-16T04:25:26;2.20;;;2.00;;
1428;SDS011;708;51.442;7.016;2022-10-16T04:27:54;2.80;;;2.00;;
1428;SDS011;708;51.442;7.016;2022-10-16T04:30:21;2.85;;;2.40;;
1428;SDS011;708;51.442;7.016;2022-10-16T04:32:48;2.40;;;2.10;;
1428;SDS011;708;51.442;7.016;2022-10-16T04:35:15;3.20;;;1.92;;
1428;SDS011;708;51.442;7.016;2022-10-16T04:37:42;2.92;;;2.05;;
1428;SDS011;708;51.442;7.016;2022-10-16T04:40:09;2.00;;;1.77;;
1428;SDS011;708;51.442;7.016;2022-10-16T04:42:36;4.30;;;2.13;;
1428;SDS011;708;51.442;7.016;2022-10-16T04:45:05;3.38;;;1.80;;
1428;SDS011;708;51.442;7.016;2022-10-16T04:47:33;2.58;;;2.00;;
1428;SDS011;708;51.442;7.016;2022-10-16T04:50:00;2.20;;;1.85;;
1428;SDS011;708;51.442;7.016;2022-10-16T04:52:27;2.85;;;1.67;;
1428;SDS011;708;51.442;7.016;2022-10-16T04:54:54;1.95;;;1.75;;
1428;SDS011;708;51.442;7.016;2022-10-16T04:57:25;3.15;;;1.85;;
1428;SDS011;708;51.442;7.016;2022-10-16T04:59:52;2.72;;;1.90;;
1428;SDS011;708;51.442;7.016;2022-10-16T05:02:20;2.45;;;1.88;;
1428;SDS011;708;51.442;7.016;2022-10-16T05:04:47;3.20;;;2.17;;
1428;SDS011;708;51.442;7.016;2022-10-16T05:07:13;4.25;;;2.50;;
1428;SDS011;708;51.442;7.016;2022-10-16T05:09:40;2.33;;;1.90;;
1428;SDS011;708;51.442;7.016;2022-10-16T05:12:07;2.20;;;2.00;;
1428;SDS011;708;51.442;7.016;2022-10-16T05:14:33;2.40;;;2.00;;
1428;SDS011;708;51.442;7.016;2022-10-16T05:17:00;2.75;;;2.10;;
1428;SDS011;708;51.442;7.016;2022-10-16T05:19:28;3.10;;;1.95;;
1428;SDS011;708;51.442;7.016;2022-10-16T05:21:55;2.67;;;2.08;;
1428;SDS011;708;51.442;7.016;2022-10-16T05:24:22;2.17;;;1.98;;
1428;SDS011;708;51.442;7.016;2022-10-16T05:26:49;2.85;;;1.70;;
1428;SDS011;708;51.442;7.016;2022-10-16T05:29:16;3.40;;;1.85;;
1428;SDS011;708;51.442;7.016;2022-10-16T05:31:43;2.72;;;2.15;;
1428;SDS011;708;51.442;7.016;2022-10-16T05:34:09;2.72;;;2.00;;
1428;SDS011;708;51.442;7.016;2022-10-16T05:36:38;2.13;;;1.92;;
1428;SDS011;708;51.442;7.016;2022-10-16T05:39:04;2.47;;;2.08;;
1428;SDS011;708;51.442;7.016;2022-10-16T05:41:31;3.65;;;1.95;;
1428;SDS011;708;51.442;7.016;2022-10-16T05:43:58;3.70;;;1.90;;
1428;SDS011;708;51.442;7.016;2022-10-16T05:46:24;2.00;;;1.80;;
1428;SDS011;708;51.442;7.016;2022-10-16T05:48:51;1.98;;;1.77;;
1428;SDS011;708;51.442;7.016;2022-10-16T05:51:18;2.17;;;1.90;;
1428;SDS011;708;51.442;7.016;2022-10-16T05:53:46;2.70;;;2.10;;
1428;SDS011;708;51.442;7.016;2022-10-16T05:56:13;7.38;;;2.33;;
1428;SDS011;708;51.442;7.016;2022-10-16T05:58:40;2.70;;;1.80;;
1428;SDS011;708;51.442;7.016;2022-10-16T06:01:09;3.47;;;2.22;;
1428;SDS011;708;51.442;7.016;2022-10-16T06:03:38;3.00;;;1.80;;
1428;SDS011;708;51.442;7.016;2022-10-16T06:06:08;3.22;;;1.80;;
1428;SDS011;708;51.442;7.016;2022-10-16T06:08:36;4.60;;;3.30;;
1428;SDS011;708;51.442;7.016;2022-10-16T06:11:09;6.80;;;2.05;;
1428;SDS011;708;51.442;7.016;2022-10-16T06:13:37;2.30;;;2.08;;
1428;SDS011;708;51.442;7.016;2022-10-16T06:16:07;4.95;;;2.05;;
1428;SDS011;708;51.442;7.016;2022-10-16T06:18:34;3.15;;;1.85;;
1428;SDS011;708;51.442;7.016;2022-10-16T06:21:06;3.53;;;2.25;;
1428;SDS011;708;51.442;7.016;2022-10-16T06:23:47;3.47;;;1.90;;
1428;SDS011;708;51.442;7.016;2022-10-16T06:26:45;2.20;;;1.83;;
1428;SDS011;708;51.442;7.016;2022-10-16T06:29:20;3.05;;;2.03;;
1428;SDS011;708;51.442;7.016;2022-10-16T06:32:33;2.72;;;2.10;;
1428;SDS011;708;51.442;7.016;2022-10-16T06:35:00;2.28;;;2.08;;
1428;SDS011;708;51.442;7.016;2022-10-16T06:37:27;2.35;;;1.90;;
1428;SDS011;708;51.442;7.016;2022-10-16T06:39:57;2.38;;;1.98;;
1428;SDS011;708;51.442;7.016;2022-10-16T06:42:52;3.80;;;2.15;;
1428;SDS011;708;51.442;7.016;2022-10-16T06:45:58;3.00;;;2.70;;
1428;SDS011;708;51.442;7.016;2022-10-16T06:48:54;3.45;;;2.40;;
1428;SDS011;708;51.442;7.016;2022-10-16T06:51:22;2.95;;;2.20;;
1428;SDS011;708;51.442;7.016;2022-10-16T06:54:06;2.58;;;1.70;;
1428;SDS011;708;51.442;7.016;2022-10-16T06:56:55;2.63;;;1.60;;
1428;SDS011;708;51.442;7.016;2022-10-16T06:59:23;3.10;;;1.90;;
1428;SDS011;708;51.442;7.016;2022-10-16T07:01:50;2.92;;;2.30;;
1428;SDS011;708;51.442;7.016;2022-10-16T07:04:17;2.35;;;1.92;;
1428;SDS011;708;51.442;7.016;2022-10-16T07:06:44;2.35;;;2.08;;
1428;SDS011;708;51.442;7.016;2022-10-16T07:09:11;4.28;;;2.08;;
1428;SDS011;708;51.442;7.016;2022-10-16T07:11:38;2.50;;;2.08;;
1428;SDS011;708;51.442;7.016;2022-10-16T07:14:08;2.30;;;2.10;;
1428;SDS011;708;51.442;7.016;2022-10-16T07:16:42;1.85;;;1.52;;
1428;SDS011;708;51.442;7.016;2022-10-16T07:19:09;5.97;;;1.90;;
1428;SDS011;708;51.442;7.016;2022-10-16T07:21:39;2.03;;;1.42;;
1428;SDS011;708;51.442;7.016;2022-10-16T07:24:07;3.58;;;2.08;;
1428;SDS011;708;51.442;7.016;2022-10-16T07:26:38;3.45;;;2.13;;
1428;SDS011;708;51.442;7.016;2022-10-16T07:29:06;4.10;;;2.00;;
1428;SDS011;708;51.442;7.016;2022-10-16T07:31:38;4.50;;;1.80;;
1428;SDS011;708;51.442;7.016;2022-10-16T07:34:07;3.75;;;1.70;;
1428;SDS011;708;51.442;7.016;2022-10-16T07:36:34;2.35;;;1.73;;
1428;SDS011;708;51.442;7.016;2022-10-16T07:39:00;3.15;;;1.60;;
1428;SDS011;708;51.442;7.016;2022-10-16T07:41:27;3.30;;;1.60;;
1428;SDS011;708;51.442;7.016;2022-10-16T07:43:55;4.73;;;1.57;;
1428;SDS011;708;51.442;7.016;2022-10-16T07:46:25;3.20;;;2.17;;
1428;SDS011;708;51.442;7.016;2022-10-16T07:48:52;1.60;;;1.50;;
1428;SDS011;708;51.442;7.016;2022-10-16T07:51:21;2.50;;;1.70;;
1428;SDS011;708;51.442;7.016;2022-10-16T07:53:48;2.27;;;1.00;;
1428;SDS011;708;51.442;7.016;2022-10-16T07:56:16;3.73;;;1.60;;
1428;SDS011;708;51.442;7.016;2022-10-16T07:58:43;3.77;;;1.77;;
1428;SDS011;708;51.442;7.016;2022-10-16T08:01:11;1.70;;;1.10;;
1428;SDS011;708;51.442;7.016;2022-10-16T08:03:41;2.50;;;1.23;;
1428;SDS011;708;51.442;7.016;2022-10-16T08:06:08;2.93;;;1.40;;
1428;SDS011;708;51.442;7.016;2022-10-16T08:08:36;2.37;;;1.30;;
1428;SDS011;708;51.442;7.016;2022-10-16T08:11:03;5.90;;;1.47;;
1428;SDS011;708;51.442;7.016;2022-10-16T08:13:30;2.20;;;1.40;;
1428;SDS011;708;51.442;7.016;2022-10-16T08:15:57;3.97;;;1.73;;
1428;SDS011;708;51.442;7.016;2022-10-16T08:18:26;2.70;;;1.67;;
1428;SDS011;708;51.442;7.016;2022-10-16T08:20:56;2.00;;;1.10;;
1428;SDS011;708;51.442;7.016;2022-10-16T08:23:33;2.07;;;1.37;;
1428;SDS011;708;51.442;7.016;2022-10-16T08:26:03;2.53;;;1.50;;
1428;SDS011;708;51.442;7.016;2022-10-16T08:28:31;2.23;;;1.53;;
1428;SDS011;708;51.442;7.016;2022-10-16T08:31:04;2.67;;;1.37;;
1428;SDS011;708;51.442;7.016;2022-10-16T08:33:32;2.53;;;1.27;;
1428;SDS011;708;51.442;7.016;2022-10-16T08:35:59;2.33;;;1.33;;
1428;SDS011;708;51.442;7.016;2022-10-16T08:38:26;1.80;;;1.10;;
1428;SDS011;708;51.442;7.016;2022-10-16T08:40:54;1.77;;;1.03;;
1428;SDS011;708;51.442;7.016;2022-10-16T08:43:33;2.97;;;1.20;;
1428;SDS011;708;51.442;7.016;2022-10-16T08:46:15;3.23;;;1.80;;
1428;SDS011;708;51.442;7.016;2022-10-16T08:48:51;2.30;;;1.13;;
1428;SDS011;708;51.442;7.016;2022-10-16T08:51:20;2.87;;;1.37;;
1428;SDS011;708;51.442;7.016;2022-10-16T08:53:50;3.03;;;1.57;;
1428;SDS011;708;51.442;7.016;2022-10-16T08:56:19;3.10;;;1.60;;
1428;SDS011;708;51.442;7.016;2022-10-16T08:58:48;3.33;;;1.63;;
1428;SDS011;708;51.442;7.016;2022-10-16T09:01:17;2.87;;;1.50;;
1428;SDS011;708;51.442;7.016;2022-10-16T09:03:56;1.83;;;1.13;;
1428;SDS011;708;51.442;7.016;2022-10-16T09:06:37;2.63;;;1.20;;
1428;SDS011;708;51.442;7.016;2022-10-16T09:12:02;2.50;;;1.67;;
1428;SDS011;708;51.442;7.016;2022-10-16T09:17:39;3.93;;;1.30;;
1428;SDS011;708;51.442;7.016;2022-10-16T09:20:18;2.90;;;1.70;;
1428;SDS011;708;51.442;7.016;2022-10-16T09:22:53;2.70;;;1.50;;
1428;SDS011;708;51.442;7.016;2022-10-16T09:25:26;4.50;;;1.20;;
1428;SDS011;708;51.442;7.016;2022-10-16T09:27:53;3.43;;;1.70;;
1428;SDS011;708;51.442;7.016;2022-10-16T09:30:22;3.40;;;1.43;;
1428;SDS011;708;51.442;7.016;2022-10-16T09:32:54;2.77;;;1.50;;
1428;SDS011;708;51.442;7.016;2022-10-16T09:35:25;4.10;;;1.67;;
1428;SDS011;708;51.442;7.016;2022-10-16T09:37:58;4.03;;;1.60;;
1428;SDS011;708;51.442;7.016;2022-10-16T09:40:25;4.20;;;1.50;;
1428;SDS011;708;51.442;7.016;2022-10-16T09:42:56;3.30;;;1.47;;
1428;SDS011;708;51.442;7.016;2022-10-16T09:45:29;6.83;;;1.60;;
1428;SDS011;708;51.442;7.016;2022-10-16T09:47:56;5.77;;;1.30;;
1428;SDS011;708;51.442;7.016;2022-10-16T09:50:23;4.17;;;1.87;;
1428;SDS011;708;51.442;7.016;2022-10-16T09:53:02;2.43;;;1.40;;
1428;SDS011;708;51.442;7.016;2022-10-16T09:55:30;2.10;;;1.33;;
1428;SDS011;708;51.442;7.016;2022-10-16T09:57:59;4.13;;;1.53;;
1428;SDS011;708;51.442;7.016;2022-10-16T10:00:26;3.77;;;1.43;;
1428;SDS011;708;51.442;7.016;2022-10-16T10:02:56;2.83;;;1.47;;
1428;SDS011;708;51.442;7.016;2022-10-16T10:05:24;4.30;;;1.30;;
1428;SDS011;708;51.442;7.016;2022-10-16T10:07:56;3.20;;;1.67;;
1428;SDS011;708;51.442;7.016;2022-10-16T10:10:25;2.87;;;1.43;;
1428;SDS011;708;51.442;7.016;2022-10-16T10:12:53;3.20;;;1.50;;
1428;SDS011;708;51.442;7.016;2022-10-16T10:15:20;2.37;;;1.50;;
1428;SDS011;708;51.442;7.016;2022-10-16T10:17:50;3.63;;;1.80;;
1428;SDS011;708;51.442;7.016;2022-10-16T10:20:26;2.40;;;1.60;;
1428;SDS011;708;51.442;7.016;2022-10-16T10:22:54;4.07;;;1.50;;
1428;SDS011;708;51.442;7.016;2022-10-16T10:25:31;2.83;;;1.50;;
1428;SDS011;708;51.442;7.016;2022-10-16T10:28:14;2.07;;;1.47;;
1428;SDS011;708;51.442;7.016;2022-10-16T10:30:56;2.63;;;1.30;;
1428;SDS011;708;51.442;7.016;2022-10-16T10:33:31;1.70;;;1.27;;
1428;SDS011;708;51.442;7.016;2022-10-16T10:36:14;3.53;;;1.70;;
1428;SDS011;708;51.442;7.016;2022-10-16T10:38:48;3.97;;;1.50;;
1428;SDS011;708;51.442;7.016;2022-10-16T10:44:32;3.67;;;2.53;;
1428;SDS011;708;51.442;7.016;2022-10-16T10:47:14;3.80;;;1.30;;
1428;SDS011;708;51.442;7.016;2022-10-16T10:49:52;3.57;;;1.70;;
1428;SDS011;708;51.442;7.016;2022-10-16T10:52:33;4.00;;;2.37;;
1428;SDS011;708;51.442;7.016;2022-10-16T10:55:09;3.67;;;1.50;;
1428;SDS011;708;51.442;7.016;2022-10-16T10:57:43;2.23;;;1.23;;
1428;SDS011;708;51.442;7.016;2022-10-16T11:00:20;5.53;;;2.90;;
1428;SDS011;708;51.442;7.016;2022-10-16T11:02:50;2.20;;;1.47;;
1428;SDS011;708;51.442;7.016;2022-10-16T11:05:30;4.80;;;1.90;;
1428;SDS011;708;51.442;7.016;2022-10-16T11:08:08;2.17;;;1.47;;
1428;SDS011;708;51.442;7.016;2022-10-16T11:10:42;2.87;;;1.30;;
1428;SDS011;708;51.442;7.016;2022-10-16T11:13:22;2.27;;;1.67;;
1428;SDS011;708;51.442;7.016;2022-10-16T11:15:56;2.47;;;1.60;;
1428;SDS011;708;51.442;7.016;2022-10-16T11:18:27;1.87;;;1.10;;
1428;SDS011;708;51.442;7.016;2022-10-16T11:21:00;4.50;;;1.33;;
1428;SDS011;708;51.442;7.016;2022-10-16T11:23:33;1.80;;;1.30;;
1428;SDS011;708;51.442;7.016;2022-10-16T11:26:05;2.93;;;1.40;;
1428;SDS011;708;51.442;7.016;2022-10-16T11:28:40;3.23;;;1.77;;
1428;SDS011;708;51.442;7.016;2022-10-16T11:31:13;3.30;;;1.70;;
1428;SDS011;708;51.442;7.016;2022-10-16T11:33:45;2.70;;;1.43;;
1428;SDS011;708;51.442;7.016;2022-10-16T11:36:17;2.13;;;0.90;;
1428;SDS011;708;51.442;7.016;2022-10-16T11:38:51;2.40;;;1.00;;
1428;SDS011;708;51.442;7.016;2022-10-16T11:41:24;2.50;;;1.07;;
1428;SDS011;708;51.442;7.016;2022-10-16T11:44:00;2.07;;;0.90;;
1428;SDS011;708;51.442;7.016;2022-10-16T11:46:43;2.00;;;1.10;;
1428;SDS011;708;51.442;7.016;2022-10-16T11:49:16;2.23;;;1.10;;
1428;SDS011;708;51.442;7.016;2022-10-16T11:51:48;2.43;;;1.27;;
1428;SDS011;708;51.442;7.016;2022-10-16T11:54:24;2.07;;;0.90;;
1428;SDS011;708;51.442;7.016;2022-10-16T11:56:59;4.23;;;1.30;;
1428;SDS011;708;51.442;7.016;2022-10-16T11:59:42;3.80;;;1.97;;
1428;SDS011;708;51.442;7.016;2022-10-16T12:02:26;1.97;;;1.03;;
1428;SDS011;708;51.442;7.016;2022-10-16T12:05:13;2.10;;;1.30;;
1428;SDS011;708;51.442;7.016;2022-10-16T12:07:48;3.30;;;1.60;;
1428;SDS011;708;51.442;7.016;2022-10-16T12:10:24;2.13;;;1.00;;
1428;SDS011;708;51.442;7.016;2022-10-16T12:12:53;3.30;;;1.47;;
1428;SDS011;708;51.442;7.016;2022-10-16T12:15:23;2.13;;;1.33;;
1428;SDS011;708;51.442;7.016;2022-10-16T12:17:51;2.10;;;1.20;;
1428;SDS011;708;51.442;7.016;2022-10-16T12:20:20;1.80;;;1.00;;
1428;SDS011;708;51.442;7.016;2022-10-16T12:22:53;2.40;;;1.27;;
1428;SDS011;708;51.442;7.016;2022-10-16T12:25:24;2.17;;;1.07;;
1428;SDS011;708;51.442;7.016;2022-10-16T12:27:57;2.50;;;1.00;;
1428;SDS011;708;51.442;7.016;2022-10-16T12:30:26;2.43;;;1.10;;
1428;SDS011;708;51.442;7.016;2022-10-16T12:32:55;2.00;;;1.00;;
1428;SDS011;708;51.442;7.016;2022-10-16T12:35:24;2.40;;;1.20;;
1428;SDS011;708;51.442;7.016;2022-10-16T12:37:53;3.97;;;1.50;;
1428;SDS011;708;51.442;7.016;2022-10-16T12:40:25;2.33;;;1.53;;
1428;SDS011;708;51.442;7.016;2022-10-16T12:42:55;1.67;;;1.20;;
1428;SDS011;708;51.442;7.016;2022-10-16T12:45:28;2.40;;;1.03;;
1428;SDS011;708;51.442;7.016;2022-10-16T12:47:57;2.50;;;1.17;;
1428;SDS011;708;51.442;7.016;2022-10-16T12:50:26;2.93;;;1.87;;
1428;SDS011;708;51.442;7.016;2022-10-16T12:52:58;3.63;;;1.40;;
1428;SDS011;708;51.442;7.016;2022-10-16T12:55:30;2.53;;;1.70;;
1428;SDS011;708;51.442;7.016;2022-10-16T12:58:09;1.43;;;1.10;;
1428;SDS011;708;51.442;7.016;2022-10-16T13:00:48;3.50;;;1.57;;
1428;SDS011;708;51.442;7.016;2022-10-16T13:03:30;6.80;;;1.47;;
1428;SDS011;708;51.442;7.016;2022-10-16T13:06:17;3.20;;;1.13;;
1428;SDS011;708;51.442;7.016;2022-10-16T13:11:57;1.90;;;1.03;;
1428;SDS011;708;51.442;7.016;2022-10-16T13:14:47;2.57;;;1.70;;
1428;SDS011;708;51.442;7.016;2022-10-16T13:17:33;2.50;;;1.37;;
1428;SDS011;708;51.442;7.016;2022-10-16T13:20:09;2.47;;;1.27;;
1428;SDS011;708;51.442;7.016;2022-10-16T13:22:45;2.20;;;1.10;;
1428;SDS011;708;51.442;7.016;2022-10-16T13:25:22;3.23;;;1.50;;
1428;SDS011;708;51.442;7.016;2022-10-16T13:28:07;3.10;;;1.33;;
1428;SDS011;708;51.442;7.016;2022-10-16T13:30:37;2.50;;;1.27;;
1428;SDS011;708;51.442;7.016;2022-10-16T13:33:06;2.27;;;1.60;;
1428;SDS011;708;51.442;7.016;2022-10-16T13:35:46;3.73;;;1.17;;
1428;SDS011;708;51.442;7.016;2022-10-16T13:38:17;3.83;;;1.70;;
1428;SDS011;708;51.442;7.016;2022-10-16T13:40:49;2.40;;;1.50;;
1428;SDS011;708;51.442;7.016;2022-10-16T13:43:22;2.53;;;1.30;;
1428;SDS011;708;51.442;7.016;2022-10-16T13:45:52;4.23;;;1.33;;
1428;SDS011;708;51.442;7.016;2022-10-16T13:48:24;1.97;;;1.10;;
1428;SDS011;708;51.442;7.016;2022-10-16T13:51:10;3.80;;;1.40;;
1428;SDS011;708;51.442;7.016;2022-10-16T13:53:39;2.60;;;1.40;;
1428;SDS011;708;51.442;7.016;2022-10-16T13:56:07;2.43;;;1.17;;
1428;SDS011;708;51.442;7.016;2022-10-16T13:58:38;3.00;;;1.20;;
1428;SDS011;708;51.442;7.016;2022-10-16T14:01:06;3.00;;;1.17;;
1428;SDS011;708;51.442;7.016;2022-10-16T14:03:42;2.80;;;1.10;;
1428;SDS011;708;51.442;7.016;2022-10-16T14:06:11;3.10;;;1.30;;
1428;SDS011;708;51.442;7.016;2022-10-16T14:08:41;2.47;;;1.03;;
1428;SDS011;708;51.442;7.016;2022-10-16T14:11:09;1.50;;;1.07;;
1428;SDS011;708;51.442;7.016;2022-10-16T14:13:39;1.70;;;1.00;;
1428;SDS011;708;51.442;7.016;2022-10-16T14:16:10;2.40;;;1.07;;
1428;SDS011;708;51.442;7.016;2022-10-16T14:18:44;2.03;;;1.20;;
1428;SDS011;708;51.442;7.016;2022-10-16T14:21:22;3.00;;;1.60;;
1428;SDS011;708;51.442;7.016;2022-10-16T14:23:49;1.87;;;1.17;;
1428;SDS011;708;51.442;7.016;2022-10-16T14:26:25;2.23;;;1.20;;
1428;SDS011;708;51.442;7.016;2022-10-16T14:29:10;2.80;;;1.17;;
1428;SDS011;708;51.442;7.016;2022-10-16T14:31:40;1.80;;;0.93;;
1428;SDS011;708;51.442;7.016;2022-10-16T14:34:24;3.87;;;1.60;;
1428;SDS011;708;51.442;7.016;2022-10-16T14:36:55;2.87;;;1.70;;
1428;SDS011;708;51.442;7.016;2022-10-16T14:39:24;3.60;;;1.30;;
1428;SDS011;708;51.442;7.016;2022-10-16T14:41:54;3.00;;;1.40;;
1428;SDS011;708;51.442;7.016;2022-10-16T14:44:25;6.07;;;1.20;;
1428;SDS011;708;51.442;7.016;2022-10-16T14:46:54;5.73;;;1.70;;
1428;SDS011;708;51.442;7.016;2022-10-16T14:49:22;2.60;;;1.30;;
1428;SDS011;708;51.442;7.016;2022-10-16T14:51:49;4.33;;;2.13;;
1428;SDS011;708;51.442;7.016;2022-10-16T14:54:17;3.70;;;2.17;;
1428;SDS011;708;51.442;7.016;2022-10-16T14:56:46;3.87;;;2.47;;
1428;SDS011;708;51.442;7.016;2022-10-16T14:59:15;3.20;;;1.50;;
1428;SDS011;708;51.442;7.016;2022-10-16T15:01:46;2.90;;;1.57;;
1428;SDS011;708;51.442;7.016;2022-10-16T15:04:13;1.60;;;1.13;;
1428;SDS011;708;51.442;7.016;2022-10-16T15:06:43;1.90;;;1.43;;
1428;SDS011;708;51.442;7.016;2022-10-16T15:09:10;2.20;;;1.00;;
1428;SDS011;708;51.442;7.016;2022-10-16T15:11:37;2.83;;;1.30;;
1428;SDS011;708;51.442;7.016;2022-10-16T15:14:05;2.37;;;1.50;;
1428;SDS011;708;51.442;7.016;2022-10-16T15:16:32;3.03;;;1.10;;
1428;SDS011;708;51.442;7.016;2022-10-16T15:19:00;3.50;;;1.30;;
1428;SDS011;708;51.442;7.016;2022-10-16T15:21:27;1.40;;;1.00;;
1428;SDS011;708;51.442;7.016;2022-10-16T15:23:56;4.93;;;2.40;;
1428;SDS011;708;51.442;7.016;2022-10-16T15:26:23;2.37;;;1.80;;
1428;SDS011;708;51.442;7.016;2022-10-16T15:28:50;4.70;;;1.60;;
1428;SDS011;708;51.442;7.016;2022-10-16T15:31:17;2.37;;;1.50;;
1428;SDS011;708;51.442;7.016;2022-10-16T15:33:43;5.20;;;2.30;;
1428;SDS011;708;51.442;7.016;2022-10-16T15:36:17;4.90;;;2.13;;
1428;SDS011;708;51.442;7.016;2022-10-16T15:38:50;3.20;;;2.10;;
1428;SDS011;708;51.442;7.016;2022-10-16T15:41:16;7.27;;;2.43;;
1428;SDS011;708;51.442;7.016;2022-10-16T15:43:43;3.23;;;1.90;;
1428;SDS011;708;51.442;7.016;2022-10-16T15:46:11;4.00;;;2.50;;
1428;SDS011;708;51.442;7.016;2022-10-16T15:48:39;8.00;;;4.60;;
1428;SDS011;708;51.442;7.016;2022-10-16T15:51:06;4.80;;;3.23;;
1428;SDS011;708;51.442;7.016;2022-10-16T15:53:35;8.80;;;3.47;;
1428;SDS011;708;51.442;7.016;2022-10-16T15:56:02;5.27;;;3.30;;
1428;SDS011;708;51.442;7.016;2022-10-16T15:58:29;4.83;;;2.40;;
1428;SDS011;708;51.442;7.016;2022-10-16T16:00:56;9.50;;;3.50;;
1428;SDS011;708;51.442;7.016;2022-10-16T16:03:25;5.50;;;3.40;;
1428;SDS011;708;51.442;7.016;2022-10-16T16:05:53;4.60;;;2.77;;